| time (UTC) | temp F | wind direction | speed knots | gust knots | rain 1hr in | rain 24hr in | rain mn in | humidity % | barometer mb |
| 20260510021825 | 59 | 224 | 0.0 | 3.5 | 0.00 | 0.01 | 0.01 | 78 | 1030.8 |
| 20260510020904 | 59 | 258 | 0.0 | 3.5 | 0.00 | 0.01 | 0.01 | 76 | 1030.9 |
| 20260510020005 | 59 | 217 | 0.0 | 1.7 | 0.00 | 0.01 | 0.01 | 78 | 1031.1 |
| 20260510015404 | 58 | 166 | 0.0 | 0.9 | 0.00 | 0.01 | 0.01 | 80 | 1031.1 |
| 20260510014504 | 57 | 164 | 0.0 | 1.7 | 0.00 | 0.01 | 0.01 | 79 | 1031.3 |
| 20260510013625 | 58 | 249 | 0.0 | 1.7 | 0.00 | 0.01 | 0.01 | 82 | 1031.3 |
| 20260510012704 | 57 | 324 | 0.0 | 1.7 | 0.00 | 0.01 | 0.01 | 81 | 1031.3 |
| 20260510011825 | 57 | 184 | 0.0 | 1.7 | 0.00 | 0.01 | 0.01 | 82 | 1031.3 |
| 20260510010904 | 57 | 36 | 0.0 | 0.9 | 0.00 | 0.01 | 0.01 | 83 | 1031.6 |
| 20260510010025 | 57 | 22 | 0.0 | 1.7 | 0.00 | 0.01 | 0.01 | 82 | 1031.5 |
| 20260510005404 | 57 | 213 | 0.0 | 1.7 | 0.00 | 0.01 | 0.01 | 82 | 1031.4 |
| 20260510004525 | 57 | 216 | 0.0 | 2.6 | 0.00 | 0.01 | 0.01 | 83 | 1031.6 |
| 20260510003604 | 57 | 182 | 0.9 | 1.7 | 0.00 | 0.01 | 0.01 | 81 | 1031.4 |
| 20260510002704 | 57 | 194 | 0.0 | 1.7 | 0.00 | 0.01 | 0.01 | 83 | 1031.5 |
| 20260510001825 | 56 | 195 | 0.0 | 1.7 | 0.00 | 0.01 | 0.01 | 83 | 1031.1 |
| 20260510000904 | 56 | 206 | 0.0 | 0.9 | 0.00 | 0.01 | 0.01 | 86 | 1031.4 |
| 20260510000004 | 56 | 207 | 0.0 | 1.7 | 0.00 | 0.01 | 0.01 | 87 | 1031.3 |
| 20260509235404 | 56 | 209 | 0.0 | 1.7 | 0.00 | 0.01 | 0.01 | 89 | 1031.3 |
| 20260509234504 | 55 | 292 | 0.0 | 1.7 | 0.00 | 0.01 | 0.01 | 90 | 1031.3 |
| 20260509233604 | 55 | 300 | 0.0 | 0.9 | 0.00 | 0.01 | 0.01 | 91 | 1031.4 |
| 20260509232704 | 55 | 273 | 0.0 | 0.9 | 0.00 | 0.01 | 0.01 | 92 | 1031.4 |
| 20260509231804 | 54 | 271 | 0.0 | 0.9 | 0.00 | 0.01 | 0.01 | 93 | 1031.5 |
| 20260509230904 | 54 | 240 | 0.0 | 0.9 | 0.00 | 0.01 | 0.01 | 94 | 1031.5 |
| 20260509230009 | 54 | 144 | 0.0 | 0.9 | 0.00 | 0.01 | 0.01 | 95 | 1031.4 |
| 20260509225425 | 54 | 0 | 0.0 | 0.0 | 0.00 | 0.01 | 0.01 | 96 | 1031.5 |
| 20260509224504 | 53 | 0 | 0.0 | 0.0 | 0.00 | 0.01 | 0.01 | 97 | 1031.5 |
| 20260509223604 | 53 | 0 | 0.0 | 0.0 | 0.00 | 0.01 | 0.01 | 98 | 1031.4 |
| 20260509222704 | 53 | 0 | 0.0 | 0.0 | 0.00 | 0.01 | 0.01 | 99 | 1031.2 |
| 20260509221804 | 53 | 0 | 0.0 | 0.0 | 0.00 | 0.01 | 0.01 | 99 | 1031.3 |
| 20260509220904 | 52 | 0 | 0.0 | 0.0 | 0.00 | 0.01 | 0.01 | 99 | 1031.0 |
| 20260509220004 | 52 | 0 | 0.0 | 0.0 | 0.00 | 0.01 | 0.01 | 99 | 1030.7 |
| 20260509215404 | 52 | 0 | 0.0 | 0.0 | 0.00 | 0.01 | 0.01 | 99 | 1030.8 |
| 20260509214504 | 52 | 0 | 0.0 | 0.0 | 0.00 | 0.01 | 0.01 | 99 | 1030.4 |
| 20260509213604 | 52 | 172 | 0.0 | 0.9 | 0.00 | 0.01 | 0.01 | 99 | 1030.6 |
| 20260509212725 | 52 | 0 | 0.0 | 0.0 | 0.00 | 0.01 | 0.01 | 99 | 1030.4 |
| 20260509211804 | 52 | 0 | 0.0 | 0.0 | 0.00 | 0.01 | 0.01 | 99 | 1030.5 |
| 20260509210904 | 52 | 0 | 0.0 | 0.0 | 0.00 | 0.01 | 0.01 | 99 | 1030.4 |
| 20260509210025 | 52 | 0 | 0.0 | 0.0 | 0.00 | 0.02 | 0.01 | 99 | 1030.3 |
| 20260509205404 | 52 | 0 | 0.0 | 0.0 | 0.00 | 0.03 | 0.01 | 99 | 1030.1 |
| 20260509204504 | 52 | 0 | 0.0 | 0.0 | 0.00 | 0.03 | 0.01 | 99 | 1029.8 |
| 20260509203603 | 52 | 122 | 0.0 | 0.9 | 0.00 | 0.03 | 0.01 | 99 | 1030.0 |
| 20260509202703 | 52 | 123 | 0.0 | 0.9 | 0.00 | 0.04 | 0.01 | 99 | 1030.0 |
| 20260509201803 | 52 | 0 | 0.0 | 0.0 | 0.00 | 0.06 | 0.01 | 99 | 1029.9 |
| 20260509200903 | 52 | 132 | 0.0 | 0.9 | 0.00 | 0.08 | 0.01 | 99 | 1029.7 |
| 20260509200004 | 52 | 0 | 0.0 | 0.0 | 0.00 | 0.10 | 0.01 | 99 | 1029.6 |
| 20260509195424 | 52 | 234 | 0.0 | 0.9 | 0.00 | 0.10 | 0.01 | 99 | 1029.4 |
| 20260509194504 | 51 | 187 | 0.0 | 1.7 | 0.00 | 0.12 | 0.01 | 99 | 1029.7 |
| 20260509193603 | 51 | 165 | 0.0 | 1.7 | 0.00 | 0.12 | 0.01 | 99 | 1029.5 |
| 20260509192703 | 51 | 157 | 0.0 | 1.7 | 0.00 | 0.13 | 0.01 | 99 | 1029.3 |
| 20260509191824 | 51 | 143 | 0.0 | 1.7 | 0.00 | 0.13 | 0.01 | 99 | 1029.3 |
| 20260509190903 | 51 | 199 | 0.0 | 2.6 | 0.00 | 0.14 | 0.01 | 99 | 1029.3 |
| 20260509190004 | 51 | 185 | 0.0 | 1.7 | 0.00 | 0.17 | 0.01 | 99 | 1029.0 |
| 20260509185404 | 51 | 188 | 0.0 | 2.6 | 0.00 | 0.17 | 0.01 | 99 | 1029.2 |
| 20260509184504 | 51 | 146 | 0.0 | 2.6 | 0.00 | 0.17 | 0.01 | 99 | 1028.7 |
| 20260509183625 | 51 | 149 | 0.0 | 0.9 | 0.00 | 0.17 | 0.01 | 99 | 1029.0 |
| 20260509182704 | 51 | 0 | 0.0 | 0.0 | 0.00 | 0.19 | 0.01 | 99 | 1029.0 |
| 20260509181804 | 52 | 0 | 0.0 | 0.0 | 0.00 | 0.20 | 0.01 | 99 | 1028.7 |
| 20260509180904 | 52 | 129 | 0.0 | 0.9 | 0.00 | 0.22 | 0.01 | 99 | 1028.6 |
| 20260509180004 | 52 | 135 | 0.0 | 0.9 | 0.00 | 0.23 | 0.01 | 99 | 1028.5 |
| 20260509175403 | 52 | 138 | 0.0 | 0.9 | 0.00 | 0.25 | 0.01 | 99 | 1028.7 |
| 20260509174503 | 52 | 138 | 0.0 | 0.9 | 0.00 | 0.28 | 0.01 | 99 | 1028.6 |
| 20260509173603 | 52 | 137 | 0.0 | 0.9 | 0.00 | 0.32 | 0.01 | 99 | 1028.6 |
| 20260509172703 | 52 | 0 | 0.0 | 0.0 | 0.00 | 0.35 | 0.01 | 99 | 1028.5 |
| 20260509171824 | 52 | 0 | 0.0 | 0.0 | 0.00 | 0.36 | 0.01 | 99 | 1028.6 |
| 20260509170903 | 53 | 0 | 0.0 | 0.0 | 0.00 | 0.38 | 0.01 | 99 | 1028.6 |
| 20260509170003 | 53 | 0 | 0.0 | 0.0 | 0.00 | 0.42 | 0.01 | 99 | 1028.4 |
| 20260509165403 | 53 | 0 | 0.0 | 0.0 | 0.00 | 0.44 | 0.01 | 99 | 1028.6 |
| 20260509164503 | 53 | 0 | 0.0 | 0.0 | 0.00 | 0.46 | 0.01 | 99 | 1028.8 |
| 20260509163624 | 53 | 0 | 0.0 | 0.0 | 0.00 | 0.47 | 0.01 | 99 | 1028.4 |
| 20260509162703 | 53 | 0 | 0.0 | 0.0 | 0.00 | 0.47 | 0.01 | 99 | 1028.7 |
| 20260509161824 | 53 | 0 | 0.0 | 0.0 | 0.00 | 0.48 | 0.01 | 99 | 1028.5 |
| 20260509160903 | 53 | 0 | 0.0 | 0.0 | 0.00 | 0.48 | 0.01 | 99 | 1029.1 |
| 20260509160003 | 53 | 0 | 0.0 | 0.0 | 0.00 | 0.49 | 0.01 | 99 | 1028.8 |
| 20260509155403 | 53 | 0 | 0.0 | 0.0 | 0.01 | 0.50 | 0.01 | 99 | 1028.7 |
| 20260509154504 | 53 | 0 | 0.0 | 0.0 | 0.01 | 0.50 | 0.01 | 99 | 1028.5 |
| 20260509153603 | 54 | 0 | 0.0 | 0.0 | 0.01 | 0.50 | 0.01 | 99 | 1028.7 |
| 20260509152703 | 54 | 0 | 0.0 | 0.0 | 0.01 | 0.50 | 0.01 | 99 | 1028.8 |
| 20260509151824 | 54 | 154 | 0.0 | 0.9 | 0.01 | 0.50 | 0.01 | 99 | 1029.0 |
| 20260509150924 | 54 | 0 | 0.0 | 0.0 | 0.01 | 0.50 | 0.01 | 99 | 1028.7 |
| 20260509150004 | 54 | 0 | 0.0 | 0.0 | 0.01 | 0.50 | 0.01 | 99 | 1029.0 |
| 20260509145403 | 54 | 0 | 0.0 | 0.0 | 0.00 | 0.49 | 0.00 | 99 | 1029.0 |
| 20260509144503 | 54 | 0 | 0.0 | 0.0 | 0.00 | 0.49 | 0.00 | 99 | 1028.8 |
| 20260509143603 | 54 | 0 | 0.0 | 0.0 | 0.00 | 0.49 | 0.00 | 99 | 1028.8 |
| 20260509142724 | 53 | 0 | 0.0 | 0.0 | 0.00 | 0.49 | 0.00 | 99 | 1029.1 |
| 20260509141804 | 54 | 0 | 0.0 | 0.0 | 0.00 | 0.49 | 0.00 | 99 | 1029.0 |
| 20260509140904 | 54 | 0 | 0.0 | 0.0 | 0.00 | 0.49 | 0.00 | 99 | 1028.8 |
| 20260509140005 | 54 | 0 | 0.0 | 0.0 | 0.00 | 0.49 | 0.00 | 99 | 1029.4 |
| 20260509135404 | 54 | 0 | 0.0 | 0.0 | 0.00 | 0.49 | 0.49 | 99 | 1029.2 |
| 20260509134504 | 54 | 0 | 0.0 | 0.0 | 0.00 | 0.49 | 0.49 | 99 | 1029.0 |
| 20260509133625 | 54 | 0 | 0.0 | 0.0 | 0.00 | 0.49 | 0.49 | 99 | 1028.8 |
| 20260509132725 | 54 | 0 | 0.0 | 0.0 | 0.00 | 0.49 | 0.49 | 99 | 1028.6 |
| 20260509131804 | 54 | 0 | 0.0 | 0.0 | 0.00 | 0.49 | 0.49 | 99 | 1028.7 |
| 20260509130904 | 54 | 0 | 0.0 | 0.0 | 0.00 | 0.50 | 0.49 | 99 | 1029.0 |
| 20260509130004 | 54 | 278 | 0.0 | 0.9 | 0.00 | 0.50 | 0.49 | 99 | 1028.7 |
| 20260509125425 | 54 | 245 | 0.0 | 1.7 | 0.00 | 0.50 | 0.49 | 99 | 1028.7 |
| 20260509124504 | 54 | 237 | 0.0 | 1.7 | 0.00 | 0.50 | 0.49 | 99 | 1028.8 |
| 20260509123604 | 54 | 175 | 0.0 | 2.6 | 0.00 | 0.50 | 0.49 | 99 | 1028.8 |
| 20260509122725 | 53 | 169 | 0.9 | 2.6 | 0.00 | 0.50 | 0.49 | 99 | 1028.8 |
| 20260509121804 | 53 | 217 | 0.0 | 1.7 | 0.00 | 0.51 | 0.49 | 99 | 1029.2 |
| 20260509120904 | 54 | 0 | 0.0 | 0.0 | 0.00 | 0.51 | 0.49 | 99 | 1028.8 |
| 20260509120004 | 54 | 0 | 0.0 | 0.0 | 0.00 | 0.51 | 0.49 | 99 | 1029.0 |
| 20260509115404 | 54 | 0 | 0.0 | 0.0 | 0.00 | 0.51 | 0.49 | 99 | 1029.1 |
| 20260509114504 | 54 | 0 | 0.0 | 0.0 | 0.00 | 0.51 | 0.49 | 99 | 1028.7 |
| 20260509113625 | 54 | 0 | 0.0 | 0.0 | 0.00 | 0.51 | 0.49 | 99 | 1028.7 |
| 20260509112704 | 54 | 0 | 0.0 | 0.0 | 0.00 | 0.51 | 0.49 | 99 | 1028.6 |
| 20260509111825 | 54 | 0 | 0.0 | 0.0 | 0.00 | 0.51 | 0.49 | 99 | 1028.5 |
| 20260509110904 | 54 | 0 | 0.0 | 0.0 | 0.00 | 0.51 | 0.49 | 99 | 1028.7 |
| 20260509110004 | 54 | 0 | 0.0 | 0.0 | 0.00 | 0.51 | 0.49 | 99 | 1028.5 |
| 20260509105404 | 54 | 0 | 0.0 | 0.0 | 0.00 | 0.51 | 0.49 | 99 | 1028.6 |
| 20260509104504 | 54 | 0 | 0.0 | 0.0 | 0.00 | 0.52 | 0.49 | 99 | 1028.6 |
| 20260509103604 | 54 | 0 | 0.0 | 0.0 | 0.00 | 0.52 | 0.49 | 99 | 1028.5 |
| 20260509102704 | 54 | 0 | 0.0 | 0.0 | 0.00 | 0.52 | 0.49 | 99 | 1028.6 |
| 20260509101804 | 55 | 0 | 0.0 | 0.0 | 0.00 | 0.52 | 0.49 | 99 | 1028.6 |
| 20260509100925 | 55 | 0 | 0.0 | 0.0 | 0.00 | 0.52 | 0.49 | 99 | 1028.6 |
| 20260509095422 | 55 | 0 | 0.0 | 0.0 | 0.00 | 0.53 | 0.49 | 99 | 1028.6 |
| 20260509094504 | 55 | 0 | 0.0 | 0.0 | 0.00 | 0.53 | 0.49 | 99 | 1028.5 |
| 20260509093604 | 55 | 0 | 0.0 | 0.0 | 0.00 | 0.53 | 0.49 | 99 | 1028.5 |
| 20260509092704 | 55 | 0 | 0.0 | 0.0 | 0.00 | 0.53 | 0.49 | 99 | 1028.6 |
| 20260509091804 | 55 | 0 | 0.0 | 0.0 | 0.00 | 0.53 | 0.49 | 99 | 1028.4 |
| 20260509090904 | 55 | 0 | 0.0 | 0.0 | 0.00 | 0.53 | 0.49 | 99 | 1028.3 |
| 20260509090004 | 55 | 163 | 0.0 | 0.9 | 0.00 | 0.53 | 0.49 | 99 | 1028.3 |
| 20260509085403 | 55 | 163 | 0.0 | 0.9 | 0.00 | 0.53 | 0.49 | 98 | 1028.2 |
| 20260509084525 | 55 | 0 | 0.0 | 0.0 | 0.00 | 0.53 | 0.49 | 98 | 1028.1 |
| 20260509083624 | 55 | 0 | 0.0 | 0.0 | 0.00 | 0.54 | 0.49 | 98 | 1028.2 |
| 20260509082724 | 55 | 0 | 0.0 | 0.0 | 0.00 | 0.54 | 0.49 | 98 | 1027.8 |
| 20260509081804 | 55 | 0 | 0.0 | 0.0 | 0.00 | 0.54 | 0.49 | 98 | 1028.0 |
| 20260509080903 | 55 | 0 | 0.0 | 0.0 | 0.00 | 0.54 | 0.49 | 98 | 1027.9 |
| 20260509080004 | 56 | 177 | 0.0 | 0.9 | 0.00 | 0.54 | 0.49 | 97 | 1027.8 |
| 20260509075404 | 56 | 180 | 0.0 | 0.9 | 0.00 | 0.54 | 0.49 | 97 | 1027.8 |
| 20260509074524 | 56 | 196 | 0.0 | 0.9 | 0.00 | 0.54 | 0.49 | 97 | 1027.7 |
| 20260509073604 | 56 | 222 | 0.0 | 1.7 | 0.00 | 0.54 | 0.49 | 97 | 1027.6 |
| 20260509072724 | 56 | 218 | 0.0 | 1.7 | 0.00 | 0.54 | 0.49 | 96 | 1027.4 |
| 20260509071804 | 56 | 178 | 0.0 | 0.9 | 0.00 | 0.54 | 0.49 | 96 | 1027.4 |
| 20260509070924 | 56 | 195 | 0.0 | 1.7 | 0.00 | 0.54 | 0.49 | 96 | 1027.3 |
| 20260509070004 | 57 | 211 | 0.0 | 0.9 | 0.00 | 0.54 | 0.49 | 95 | 1027.3 |
| 20260509065403 | 57 | 187 | 0.0 | 0.9 | 0.00 | 0.54 | 0.49 | 95 | 1027.2 |
| 20260509064504 | 57 | 203 | 0.0 | 1.7 | 0.00 | 0.54 | 0.49 | 94 | 1027.3 |
| 20260509063604 | 57 | 211 | 0.0 | 1.7 | 0.00 | 0.54 | 0.49 | 93 | 1027.3 |
| 20260509062724 | 58 | 210 | 0.0 | 0.9 | 0.00 | 0.54 | 0.49 | 92 | 1027.1 |
| 20260509061804 | 58 | 222 | 0.0 | 2.6 | 0.00 | 0.54 | 0.49 | 92 | 1027.0 |
| 20260509060903 | 58 | 215 | 0.0 | 0.9 | 0.00 | 0.54 | 0.49 | 92 | 1027.0 |
| 20260509060024 | 58 | 192 | 0.0 | 2.6 | 0.00 | 0.54 | 0.49 | 92 | 1027.0 |
| 20260509055403 | 58 | 204 | 0.0 | 1.7 | 0.00 | 0.54 | 0.49 | 92 | 1027.1 |
| 20260509054504 | 58 | 182 | 0.0 | 1.7 | 0.00 | 0.54 | 0.49 | 92 | 1027.0 |
| 20260509053604 | 58 | 193 | 0.0 | 1.7 | 0.00 | 0.54 | 0.49 | 91 | 1026.9 |
| 20260509052724 | 58 | 199 | 0.0 | 0.9 | 0.00 | 0.54 | 0.49 | 92 | 1026.7 |
| 20260509051803 | 58 | 198 | 0.0 | 2.6 | 0.00 | 0.54 | 0.49 | 92 | 1026.9 |
| 20260509050924 | 58 | 234 | 0.0 | 1.7 | 0.00 | 0.54 | 0.49 | 92 | 1026.8 |
| 20260509050003 | 58 | 211 | 0.0 | 1.7 | 0.00 | 0.54 | 0.49 | 92 | 1027.0 |
| 20260509045403 | 59 | 172 | 0.0 | 1.7 | 0.00 | 0.54 | 0.49 | 91 | 1027.0 |
| 20260509044504 | 59 | 265 | 0.0 | 2.6 | 0.00 | 0.54 | 0.49 | 91 | 1026.9 |
| 20260509043603 | 59 | 270 | 0.0 | 1.7 | 0.00 | 0.54 | 0.49 | 92 | 1026.9 |
| 20260509042703 | 59 | 206 | 0.0 | 1.7 | 0.00 | 0.55 | 0.49 | 92 | 1026.9 |
| 20260509041803 | 59 | 139 | 0.0 | 2.6 | 0.00 | 0.56 | 0.49 | 91 | 1027.1 |
| 20260509040903 | 59 | 177 | 0.0 | 1.7 | 0.00 | 0.56 | 0.49 | 92 | 1027.1 |
| 20260509040004 | 58 | 256 | 0.0 | 2.6 | 0.00 | 0.56 | 0.49 | 92 | 1027.0 |
| 20260509035403 | 59 | 288 | 0.0 | 2.6 | 0.00 | 0.56 | 0.49 | 92 | 1026.9 |
| 20260509034503 | 58 | 358 | 0.0 | 0.9 | 0.00 | 0.56 | 0.49 | 93 | 1026.9 |
| 20260509033603 | 59 | 251 | 0.0 | 1.7 | 0.00 | 0.56 | 0.49 | 92 | 1026.9 |
| 20260509032703 | 59 | 189 | 0.0 | 3.5 | 0.00 | 0.58 | 0.49 | 90 | 1027.0 |
| 20260509031824 | 59 | 196 | 0.0 | 1.7 | 0.00 | 0.58 | 0.49 | 89 | 1027.0 |
| 20260509030903 | 59 | 346 | 0.0 | 0.9 | 0.00 | 0.58 | 0.49 | 87 | 1027.1 |
| 20260509030003 | 59 | 315 | 0.0 | 1.7 | 0.00 | 0.58 | 0.49 | 90 | 1027.3 |
| 20260509025403 | 59 | 247 | 0.0 | 2.6 | 0.00 | 0.58 | 0.49 | 91 | 1027.3 |
| 20260509024503 | 58 | 239 | 0.0 | 1.7 | 0.00 | 0.58 | 0.49 | 91 | 1027.4 |
| 20260509023624 | 58 | 172 | 0.0 | 1.7 | 0.00 | 0.60 | 0.49 | 93 | 1027.4 |
| 20260509022703 | 58 | 286 | 0.0 | 1.7 | 0.00 | 0.60 | 0.49 | 93 | 1027.6 |